Time;durP1;ratioP1;P1;durP2;ratioP2;P2;SDS_P1;SDS_P2;PMS_P1;PMS_P2;Temp;Humidity;BMP_temperature;BMP_pressure;BME280_temperature;BME280_humidity;BME280_pressure;Samples;Min_cycle;Max_cycle;Signal;HPM_P1;HPM_P2
2022/09/09 00:00:16;;;;;;;18.83;17.97;;;;;;;;;;5118939;28;20461;-79
2022/09/09 00:02:46;;;;;;;19.73;18.73;;;;;;;;;;5119210;28;20446;-78
2022/09/09 00:05:18;;;;;;;19.13;18.13;;;;;;;;;;5119568;28;20437;-78
2022/09/09 00:07:49;;;;;;;19.00;18.10;;;;;;;;;;5119366;28;20407;-79
2022/09/09 00:10:19;;;;;;;19.33;18.20;;;;;;;;;;5119537;28;20479;-80
2022/09/09 00:12:51;;;;;;;18.97;17.87;;;;;;;;;;5118890;28;20461;-80
2022/09/09 00:15:21;;;;;;;18.53;17.73;;;;;;;;;;5119333;28;20498;-79
2022/09/09 00:17:52;;;;;;;18.93;18.03;;;;;;;;;;5119754;28;20471;-80
2022/09/09 00:20:23;;;;;;;19.20;17.97;;;;;;;;;;5119263;28;20411;-78
2022/09/09 00:22:54;;;;;;;19.67;18.77;;;;;;;;;;5118693;28;20401;-80
2022/09/09 00:25:25;;;;;;;19.20;18.40;;;;;;;;;;5119352;28;20415;-80
2022/09/09 00:27:52;;;;;;;19.57;18.67;;;;;;;;;;5118907;28;20436;-79
2022/09/09 00:30:22;;;;;;;19.80;18.53;;;;;;;;;;5118086;28;21004;-78
2022/09/09 00:32:50;;;;;;;19.40;18.40;;;;;;;;;;5118337;28;20479;-80
2022/09/09 00:35:20;;;;;;;19.20;18.13;;;;;;;;;;5119564;28;20463;-79
2022/09/09 00:37:49;;;;;;;20.10;19.00;;;;;;;;;;5118668;28;20444;-79
2022/09/09 00:40:23;;;;;;;18.80;17.80;;;;;;;;;;5118299;27;20475;-80
2022/09/09 00:42:54;;;;;;;19.30;18.30;;;;;;;;;;5117460;28;20436;-80
2022/09/09 00:45:36;;;;;;;19.27;18.23;;;;;;;;;;5118367;28;20892;-79
2022/09/09 00:48:06;;;;;;;19.47;18.37;;;;;;;;;;5118358;28;20451;-79
2022/09/09 00:50:38;;;;;;;19.87;18.77;;;;;;;;;;5118163;28;20445;-79
2022/09/09 00:53:12;;;;;;;18.83;17.93;;;;;;;;;;5118216;28;20843;-80
2022/09/09 00:55:42;;;;;;;18.10;17.20;;;;;;;;;;5118228;28;20432;-80
2022/09/09 00:58:10;;;;;;;18.57;17.67;;;;;;;;;;5118065;28;20840;-80
2022/09/09 01:00:43;;;;;;;18.53;17.63;;;;;;;;;;5117722;28;21005;-79
2022/09/09 01:03:22;;;;;;;19.70;18.63;;;;;;;;;;5118010;28;20463;-80
2022/09/09 01:05:52;;;;;;;19.53;18.40;;;;;;;;;;5117932;28;20963;-79
2022/09/09 01:08:30;;;;;;;19.70;18.70;;;;;;;;;;5118030;27;20468;-80
2022/09/09 01:10:58;;;;;;;19.50;18.57;;;;;;;;;;5117664;27;20509;-80
2022/09/09 01:13:26;;;;;;;19.57;18.50;;;;;;;;;;5117831;28;20485;-78
2022/09/09 01:15:56;;;;;;;19.80;18.90;;;;;;;;;;5118043;28;20433;-79
2022/09/09 01:18:25;;;;;;;20.30;18.97;;;;;;;;;;5117706;28;20443;-78
2022/09/09 01:20:57;;;;;;;19.30;18.40;;;;;;;;;;5117032;28;20515;-80
2022/09/09 01:23:32;;;;;;;20.10;19.10;;;;;;;;;;5117631;28;20924;-80
2022/09/09 01:26:17;;;;;;;20.60;19.40;;;;;;;;;;5117210;28;20896;-79
2022/09/09 01:28:45;;;;;;;19.83;18.83;;;;;;;;;;5116587;28;20462;-80
2022/09/09 01:31:14;;;;;;;293.03;266.50;;;;;;;;;;5116657;28;20455;-78
2022/09/09 01:33:41;;;;;;;56.97;52.10;;;;;;;;;;5117115;28;20494;-79
2022/09/09 01:36:10;;;;;;;27.90;25.07;;;;;;;;;;5117050;28;20451;-79
2022/09/09 01:38:38;;;;;;;20.00;19.00;;;;;;;;;;5116457;28;20434;-79
2022/09/09 01:41:05;;;;;;;20.67;19.30;;;;;;;;;;5115772;28;20442;-79
2022/09/09 01:43:34;;;;;;;20.20;19.20;;;;;;;;;;5116254;28;20437;-79
2022/09/09 01:46:03;;;;;;;19.53;18.60;;;;;;;;;;5116037;28;20441;-79
2022/09/09 01:48:31;;;;;;;19.80;18.90;;;;;;;;;;5115703;28;20488;-79
2022/09/09 01:50:58;;;;;;;19.10;18.23;;;;;;;;;;5115764;28;20412;-79
2022/09/09 01:53:26;;;;;;;19.70;18.60;;;;;;;;;;5116065;28;20462;-79
2022/09/09 01:55:59;;;;;;;19.47;18.57;;;;;;;;;;5114029;27;20426;-80
2022/09/09 01:58:31;;;;;;;19.30;18.40;;;;;;;;;;5115701;28;20495;-79
2022/09/09 02:01:04;;;;;;;20.40;19.30;;;;;;;;;;5114979;28;20411;-79
2022/09/09 02:03:33;;;;;;;19.63;18.43;;;;;;;;;;5115166;28;20783;-79
2022/09/09 02:06:07;;;;;;;19.97;18.87;;;;;;;;;;5114780;28;20447;-78
2022/09/09 02:08:38;;;;;;;20.30;19.20;;;;;;;;;;5114429;28;20479;-80
2022/09/09 02:11:07;;;;;;;19.70;18.70;;;;;;;;;;5114244;28;20813;-79
2022/09/09 02:13:36;;;;;;;20.20;19.20;;;;;;;;;;5114686;28;20461;-78
2022/09/09 02:16:09;;;;;;;20.30;19.20;;;;;;;;;;5114742;27;20445;-78
2022/09/09 02:18:39;;;;;;;19.87;18.80;;;;;;;;;;5114705;28;20498;-79
2022/09/09 02:21:08;;;;;;;19.97;18.77;;;;;;;;;;5113764;28;20476;-80
2022/09/09 02:23:36;;;;;;;20.23;19.20;;;;;;;;;;5114246;28;20430;-78
2022/09/09 02:26:04;;;;;;;20.43;19.20;;;;;;;;;;5114471;28;20444;-79
2022/09/09 02:28:33;;;;;;;20.30;19.00;;;;;;;;;;5114617;28;20838;-78
2022/09/09 02:31:01;;;;;;;20.47;19.20;;;;;;;;;;5113390;28;20461;-80
2022/09/09 02:33:32;;;;;;;20.00;18.90;;;;;;;;;;5114282;28;20479;-79
2022/09/09 02:36:03;;;;;;;20.63;18.90;;;;;;;;;;5114186;28;20429;-79
2022/09/09 02:38:32;;;;;;;19.77;18.77;;;;;;;;;;5114219;28;20499;-79
2022/09/09 02:40:59;;;;;;;19.53;18.10;;;;;;;;;;5114196;28;20941;-80
2022/09/09 02:43:26;;;;;;;18.53;17.60;;;;;;;;;;5114336;27;20447;-79
2022/09/09 02:45:59;;;;;;;19.57;18.13;;;;;;;;;;5115882;28;20491;-78
2022/09/09 02:48:30;;;;;;;19.83;18.67;;;;;;;;;;5116136;28;20455;-78
2022/09/09 02:51:06;;;;;;;18.70;17.60;;;;;;;;;;5115386;28;20407;-80
2022/09/09 02:53:40;;;;;;;18.77;17.87;;;;;;;;;;5115245;28;20553;-80
2022/09/09 02:56:10;;;;;;;19.80;18.60;;;;;;;;;;5116210;28;20407;-78
2022/09/09 02:58:39;;;;;;;19.03;18.13;;;;;;;;;;5114822;28;20438;-79
2022/09/09 03:01:06;;;;;;;19.63;18.43;;;;;;;;;;5114314;28;20454;-79
2022/09/09 03:03:34;;;;;;;347.83;191.77;;;;;;;;;;5114598;28;20419;-79
2022/09/09 03:06:02;;;;;;;77.50;50.00;;;;;;;;;;5115482;28;20210;-79
2022/09/09 03:08:30;;;;;;;334.75;183.15;;;;;;;;;;5114777;28;20701;-79
2022/09/09 03:11:01;;;;;;;178.83;132.33;;;;;;;;;;5115083;28;20214;-79
2022/09/09 03:13:28;;;;;;;19.43;18.33;;;;;;;;;;5115347;28;20443;-80
2022/09/09 03:15:56;;;;;;;19.30;18.30;;;;;;;;;;5115500;28;20481;-80
2022/09/09 03:18:24;;;;;;;19.57;18.57;;;;;;;;;;5115654;28;20453;-80
2022/09/09 03:20:53;;;;;;;19.47;18.27;;;;;;;;;;5115120;28;20444;-80
2022/09/09 03:23:22;;;;;;;18.90;17.80;;;;;;;;;;5114904;28;20456;-79
2022/09/09 03:25:51;;;;;;;184.10;133.10;;;;;;;;;;5114967;28;20457;-80
2022/09/09 03:28:18;;;;;;;19.47;18.50;;;;;;;;;;5114639;28;20464;-79
2022/09/09 03:30:46;;;;;;;19.97;18.87;;;;;;;;;;5115187;28;20897;-80
2022/09/09 03:33:14;;;;;;;137.23;82.23;;;;;;;;;;5114495;28;20419;-79
2022/09/09 03:35:48;;;;;;;269.27;127.35;;;;;;;;;;5114728;28;20476;-80
2022/09/09 03:38:16;;;;;;;20.50;19.30;;;;;;;;;;5114971;28;20705;-79
2022/09/09 03:40:51;;;;;;;19.57;18.40;;;;;;;;;;5114923;28;20469;-80
2022/09/09 03:43:19;;;;;;;123.50;94.17;;;;;;;;;;5115137;28;20427;-79
2022/09/09 03:45:47;;;;;;;131.43;84.30;;;;;;;;;;5115006;28;20468;-80
2022/09/09 03:48:15;;;;;;;20.50;19.33;;;;;;;;;;5114690;28;20485;-79
2022/09/09 03:50:45;;;;;;;19.43;18.50;;;;;;;;;;5114868;28;20406;-80
2022/09/09 03:53:12;;;;;;;19.73;18.43;;;;;;;;;;5114174;28;20890;-78
2022/09/09 03:55:41;;;;;;;19.37;18.30;;;;;;;;;;5114880;28;20495;-79
2022/09/09 03:58:10;;;;;;;19.70;18.53;;;;;;;;;;5114954;28;20422;-80
2022/09/09 04:00:43;;;;;;;19.40;18.33;;;;;;;;;;5114934;28;20779;-80
2022/09/09 04:03:10;;;;;;;20.53;19.00;;;;;;;;;;5114410;28;20440;-79
2022/09/09 04:05:39;;;;;;;216.00;133.38;;;;;;;;;;5114700;28;20797;-80
2022/09/09 04:08:08;;;;;;;338.98;208.93;;;;;;;;;;5114497;28;20651;-79
2022/09/09 04:10:37;;;;;;;82.13;50.57;;;;;;;;;;5114130;28;20218;-79
2022/09/09 04:13:04;;;;;;;48.53;36.70;;;;;;;;;;5114256;28;20457;-79
2022/09/09 04:15:35;;;;;;;20.57;19.20;;;;;;;;;;5114915;28;20515;-80
2022/09/09 04:18:02;;;;;;;20.27;18.90;;;;;;;;;;5115773;28;20425;-80
2022/09/09 04:20:30;;;;;;;19.67;18.60;;;;;;;;;;5118535;28;20463;-80
2022/09/09 04:22:57;;;;;;;20.30;19.30;;;;;;;;;;5117433;28;20441;-79
2022/09/09 04:25:24;;;;;;;20.87;19.70;;;;;;;;;;5118496;27;20452;-79
2022/09/09 04:27:55;;;;;;;18.87;18.00;;;;;;;;;;5117868;28;20434;-80
2022/09/09 04:30:22;;;;;;;20.53;19.40;;;;;;;;;;5117982;28;20494;-80
2022/09/09 04:32:51;;;;;;;21.10;20.00;;;;;;;;;;5118029;27;20464;-80
2022/09/09 04:35:19;;;;;;;21.87;20.83;;;;;;;;;;5117972;28;20965;-80
2022/09/09 04:37:48;;;;;;;21.60;20.13;;;;;;;;;;5118337;28;20427;-80
2022/09/09 04:40:15;;;;;;;23.00;21.70;;;;;;;;;;5117882;28;20888;-80
2022/09/09 04:42:43;;;;;;;22.30;21.10;;;;;;;;;;5117530;28;20907;-79
2022/09/09 04:45:13;;;;;;;22.67;21.47;;;;;;;;;;5118634;28;20420;-80
2022/09/09 04:47:41;;;;;;;23.60;22.00;;;;;;;;;;5118066;28;20440;-80
2022/09/09 04:50:11;;;;;;;22.30;20.97;;;;;;;;;;5117283;28;20459;-80
2022/09/09 04:52:39;;;;;;;23.00;21.70;;;;;;;;;;5117553;28;20428;-80
2022/09/09 04:55:06;;;;;;;24.37;22.90;;;;;;;;;;5117397;28;20480;-80
2022/09/09 04:57:34;;;;;;;24.80;22.67;;;;;;;;;;5117771;28;20426;-80
2022/09/09 05:00:01;;;;;;;22.90;21.63;;;;;;;;;;5117659;28;20447;-79
2022/09/09 05:02:29;;;;;;;24.00;22.77;;;;;;;;;;5116792;27;20447;-80
2022/09/09 05:04:57;;;;;;;23.63;22.23;;;;;;;;;;5117407;28;20447;-80
2022/09/09 05:07:27;;;;;;;23.00;21.80;;;;;;;;;;5117931;28;20452;-80
2022/09/09 05:09:54;;;;;;;22.90;21.60;;;;;;;;;;5117147;28;20507;-77
2022/09/09 05:12:23;;;;;;;23.90;22.60;;;;;;;;;;5114918;28;20436;-76
2022/09/09 05:14:51;;;;;;;23.30;21.87;;;;;;;;;;5114491;28;20486;-76
2022/09/09 05:17:18;;;;;;;23.70;22.50;;;;;;;;;;5115122;28;20481;-75
2022/09/09 05:19:46;;;;;;;23.07;21.77;;;;;;;;;;5115022;28;20493;-78
2022/09/09 05:22:13;;;;;;;21.53;20.43;;;;;;;;;;5114714;28;20928;-76
2022/09/09 05:24:42;;;;;;;24.33;22.90;;;;;;;;;;5115352;28;20456;-76
2022/09/09 05:27:12;;;;;;;23.00;21.70;;;;;;;;;;5115094;28;20426;-76
2022/09/09 05:29:41;;;;;;;22.67;21.27;;;;;;;;;;5114662;28;20485;-76
2022/09/09 05:32:09;;;;;;;22.67;21.40;;;;;;;;;;5114598;27;20455;-76
2022/09/09 05:34:37;;;;;;;23.07;21.67;;;;;;;;;;5114627;27;20480;-76
2022/09/09 05:37:05;;;;;;;22.63;21.07;;;;;;;;;;5115119;28;20453;-77
2022/09/09 05:39:32;;;;;;;21.40;20.00;;;;;;;;;;5114819;28;20496;-76
2022/09/09 05:42:02;;;;;;;22.87;21.50;;;;;;;;;;5114668;28;20448;-77
2022/09/09 05:44:29;;;;;;;21.57;20.27;;;;;;;;;;5115013;28;20428;-76
2022/09/09 05:46:57;;;;;;;22.40;21.00;;;;;;;;;;5114641;28;20429;-77
2022/09/09 05:49:25;;;;;;;23.50;22.00;;;;;;;;;;5114279;28;20569;-76
2022/09/09 05:51:52;;;;;;;21.03;20.03;;;;;;;;;;5114022;28;20907;-78
2022/09/09 05:54:20;;;;;;;21.73;20.63;;;;;;;;;;5114727;28;20446;-76
2022/09/09 05:56:49;;;;;;;24.30;22.60;;;;;;;;;;5114904;28;20449;-77
2022/09/09 05:59:18;;;;;;;21.93;20.60;;;;;;;;;;5114231;28;20443;-76
2022/09/09 06:01:45;;;;;;;21.60;20.50;;;;;;;;;;5103897;28;20798;-76
2022/09/09 06:04:13;;;;;;;22.80;21.70;;;;;;;;;;5094082;28;20438;-76
2022/09/09 06:06:41;;;;;;;22.87;21.67;;;;;;;;;;5094260;28;20483;-77
2022/09/09 06:09:10;;;;;;;21.97;20.80;;;;;;;;;;5093744;28;20472;-76
2022/09/09 06:11:38;;;;;;;21.03;20.03;;;;;;;;;;5093448;28;20825;-76
2022/09/09 06:14:05;;;;;;;22.53;21.13;;;;;;;;;;5093876;28;20465;-76
2022/09/09 06:16:35;;;;;;;22.13;20.83;;;;;;;;;;5092386;28;20481;-76
2022/09/09 06:19:03;;;;;;;22.03;20.73;;;;;;;;;;5093099;28;20481;-76
2022/09/09 06:21:32;;;;;;;22.67;21.17;;;;;;;;;;5093190;28;20907;-76
2022/09/09 06:24:00;;;;;;;21.17;19.80;;;;;;;;;;5093824;28;20429;-75
2022/09/09 06:26:28;;;;;;;20.70;19.60;;;;;;;;;;5093748;28;20465;-76
2022/09/09 06:28:57;;;;;;;20.07;18.97;;;;;;;;;;5092987;28;20478;-77
2022/09/09 06:31:25;;;;;;;22.30;21.10;;;;;;;;;;5093005;28;20460;-76
2022/09/09 06:33:55;;;;;;;20.80;19.70;;;;;;;;;;5093402;28;20478;-85
2022/09/09 06:36:24;;;;;;;20.13;19.23;;;;;;;;;;5095388;28;20448;-86
2022/09/09 06:38:52;;;;;;;22.40;20.90;;;;;;;;;;5095060;28;20441;-86
2022/09/09 06:41:20;;;;;;;20.17;19.17;;;;;;;;;;5093549;28;20451;-77
2022/09/09 06:43:47;;;;;;;20.80;19.60;;;;;;;;;;5093577;28;20450;-77
2022/09/09 06:46:15;;;;;;;19.53;18.37;;;;;;;;;;5093012;28;20476;-77
2022/09/09 06:48:44;;;;;;;20.73;19.60;;;;;;;;;;5093453;28;20461;-77
2022/09/09 06:51:14;;;;;;;19.87;18.97;;;;;;;;;;5092792;28;20814;-77
2022/09/09 06:53:43;;;;;;;19.80;18.70;;;;;;;;;;5092704;28;20825;-76
2022/09/09 06:56:22;;;;;;;20.57;19.13;;;;;;;;;;5092943;28;20476;-77
2022/09/09 06:58:51;;;;;;;20.40;19.20;;;;;;;;;;5091869;28;20500;-77
2022/09/09 07:01:19;;;;;;;20.70;19.33;;;;;;;;;;5093019;28;20421;-76
2022/09/09 07:03:47;;;;;;;18.80;17.80;;;;;;;;;;5093270;28;20421;-77
2022/09/09 07:06:17;;;;;;;19.77;18.77;;;;;;;;;;5093247;28;20449;-77
2022/09/09 07:08:45;;;;;;;19.40;18.40;;;;;;;;;;5093308;28;20476;-77
2022/09/09 07:11:12;;;;;;;20.50;19.30;;;;;;;;;;5092213;28;20471;-77
2022/09/09 07:13:40;;;;;;;19.83;18.53;;;;;;;;;;5093143;28;20450;-77
2022/09/09 07:16:07;;;;;;;21.47;20.13;;;;;;;;;;5093928;28;20480;-77
2022/09/09 07:18:35;;;;;;;20.00;18.87;;;;;;;;;;5093089;28;20811;-78
2022/09/09 07:21:03;;;;;;;19.93;18.83;;;;;;;;;;5092052;28;21262;-77
2022/09/09 07:23:32;;;;;;;19.97;18.70;;;;;;;;;;5092544;28;20912;-77
2022/09/09 07:26:00;;;;;;;20.10;18.90;;;;;;;;;;5092867;28;20433;-77
2022/09/09 07:28:28;;;;;;;20.90;19.50;;;;;;;;;;5092859;28;20500;-76
2022/09/09 07:30:56;;;;;;;20.07;18.97;;;;;;;;;;5091951;28;20471;-77
2022/09/09 07:33:24;;;;;;;19.63;18.60;;;;;;;;;;5092525;28;20534;-77
2022/09/09 07:35:51;;;;;;;20.77;19.10;;;;;;;;;;5092760;28;20489;-78
2022/09/09 07:38:20;;;;;;;19.97;18.80;;;;;;;;;;5092887;28;20813;-76
2022/09/09 07:40:49;;;;;;;20.20;18.80;;;;;;;;;;5092337;28;20462;-76
2022/09/09 07:43:17;;;;;;;19.63;18.80;;;;;;;;;;5092428;28;20443;-76
2022/09/09 07:45:45;;;;;;;22.30;20.87;;;;;;;;;;5092556;28;20455;-78
2022/09/09 07:48:12;;;;;;;20.20;18.67;;;;;;;;;;5092934;28;20418;-76
2022/09/09 07:50:39;;;;;;;19.80;18.60;;;;;;;;;;5092881;28;20446;-76
2022/09/09 07:53:07;;;;;;;19.47;18.50;;;;;;;;;;5093575;28;20816;-77
2022/09/09 07:55:34;;;;;;;19.03;17.73;;;;;;;;;;5096382;28;21011;-77
2022/09/09 07:58:03;;;;;;;19.40;18.30;;;;;;;;;;5096525;28;20450;-76
2022/09/09 08:00:33;;;;;;;19.43;18.43;;;;;;;;;;5096175;28;20461;-76
2022/09/09 08:03:01;;;;;;;18.93;17.87;;;;;;;;;;5095502;28;20424;-76
2022/09/09 08:05:29;;;;;;;19.03;17.77;;;;;;;;;;5096251;28;20488;-76
2022/09/09 08:07:57;;;;;;;18.47;17.57;;;;;;;;;;5095948;28;20433;-77
2022/09/09 08:10:25;;;;;;;20.37;18.63;;;;;;;;;;5094380;28;20458;-76
2022/09/09 08:12:52;;;;;;;19.40;18.40;;;;;;;;;;5096372;28;20425;-77
2022/09/09 08:15:20;;;;;;;19.53;18.33;;;;;;;;;;5096266;28;20460;-77
2022/09/09 08:17:48;;;;;;;18.23;17.20;;;;;;;;;;5096159;28;20422;-77
2022/09/09 08:20:16;;;;;;;19.77;18.43;;;;;;;;;;5095430;28;21008;-77
2022/09/09 08:22:43;;;;;;;19.43;18.07;;;;;;;;;;5095957;28;20463;-76
2022/09/09 08:25:11;;;;;;;18.80;17.60;;;;;;;;;;5095962;28;20433;-77
2022/09/09 08:27:40;;;;;;;18.93;17.50;;;;;;;;;;5096083;28;20461;-77
2022/09/09 08:30:08;;;;;;;18.30;17.30;;;;;;;;;;5113204;28;20469;-77
2022/09/09 08:32:36;;;;;;;18.40;17.50;;;;;;;;;;5116130;28;20455;-77
2022/09/09 08:35:04;;;;;;;19.87;18.33;;;;;;;;;;5116192;28;20929;-77
2022/09/09 08:37:32;;;;;;;19.10;17.70;;;;;;;;;;5117809;28;20448;-77
2022/09/09 08:40:00;;;;;;;20.73;19.40;;;;;;;;;;5114547;28;20538;-78
2022/09/09 08:42:31;;;;;;;18.50;17.40;;;;;;;;;;5114786;28;20755;-78
2022/09/09 08:45:13;;;;;;;18.33;17.30;;;;;;;;;;5116607;28;20522;-77
2022/09/09 08:47:46;;;;;;;18.47;17.47;;;;;;;;;;5114178;28;20803;-77
2022/09/09 08:50:18;;;;;;;19.07;17.90;;;;;;;;;;5116370;28;20463;-76
2022/09/09 08:52:49;;;;;;;18.80;17.50;;;;;;;;;;5115902;28;20459;-77
2022/09/09 08:55:22;;;;;;;20.10;18.47;;;;;;;;;;5116119;28;20754;-77
2022/09/09 08:57:52;;;;;;;18.73;17.73;;;;;;;;;;5116253;28;20446;-76
2022/09/09 09:00:19;;;;;;;20.00;18.60;;;;;;;;;;5115381;27;21019;-77
2022/09/09 09:02:50;;;;;;;19.43;18.07;;;;;;;;;;5115682;28;20928;-77
2022/09/09 09:05:21;;;;;;;19.90;18.60;;;;;;;;;;5115959;28;20890;-77
2022/09/09 09:08:00;;;;;;;19.37;18.30;;;;;;;;;;5116322;28;20519;-77
2022/09/09 09:10:36;;;;;;;20.03;19.03;;;;;;;;;;5115693;28;20957;-77
2022/09/09 09:13:04;;;;;;;20.47;19.20;;;;;;;;;;5115060;28;20404;-77
2022/09/09 09:15:36;;;;;;;20.57;19.47;;;;;;;;;;5118460;28;20465;-77
2022/09/09 09:18:05;;;;;;;20.97;19.13;;;;;;;;;;5116092;28;20432;-78
2022/09/09 09:20:37;;;;;;;19.53;18.43;;;;;;;;;;5117317;28;20422;-76
2022/09/09 09:23:06;;;;;;;21.10;19.60;;;;;;;;;;5115445;27;20485;-77
2022/09/09 09:25:35;;;;;;;19.97;18.80;;;;;;;;;;5116478;28;20449;-76
2022/09/09 09:28:06;;;;;;;19.87;18.27;;;;;;;;;;5116017;28;20472;-76
2022/09/09 09:30:36;;;;;;;19.47;18.30;;;;;;;;;;5096557;28;20449;-77
2022/09/09 09:33:10;;;;;;;20.47;19.00;;;;;;;;;;5095372;28;20454;-77
2022/09/09 09:35:38;;;;;;;19.87;18.63;;;;;;;;;;5096504;28;20588;-76
2022/09/09 09:38:11;;;;;;;19.73;18.37;;;;;;;;;;5095077;28;20787;-77
2022/09/09 09:40:49;;;;;;;21.00;19.40;;;;;;;;;;5095188;28;20441;-76
2022/09/09 09:43:21;;;;;;;21.70;20.10;;;;;;;;;;5095451;28;20804;-75
2022/09/09 09:45:49;;;;;;;19.93;18.73;;;;;;;;;;5095254;28;20432;-76
2022/09/09 09:48:17;;;;;;;20.13;18.93;;;;;;;;;;5096155;28;20443;-76
2022/09/09 09:50:49;;;;;;;20.53;18.93;;;;;;;;;;5096239;28;20453;-77
2022/09/09 09:53:23;;;;;;;19.77;18.57;;;;;;;;;;5097981;28;20427;-77
2022/09/09 09:55:54;;;;;;;21.07;19.40;;;;;;;;;;5098053;28;20947;-77
2022/09/09 09:58:21;;;;;;;19.67;18.57;;;;;;;;;;5096559;28;20429;-77
2022/09/09 10:00:52;;;;;;;20.30;19.13;;;;;;;;;;5097618;28;20447;-76
2022/09/09 10:03:28;;;;;;;20.13;19.00;;;;;;;;;;5098264;28;20450;-77
2022/09/09 10:05:57;;;;;;;21.50;20.40;;;;;;;;;;5099256;28;20533;-78
2022/09/09 10:08:25;;;;;;;20.53;19.37;;;;;;;;;;5099185;28;20485;-78
2022/09/09 10:10:59;;;;;;;22.37;20.63;;;;;;;;;;5098633;28;20461;-77
2022/09/09 10:13:32;;;;;;;20.40;19.30;;;;;;;;;;5099728;28;20451;-76
2022/09/09 10:16:06;;;;;;;20.50;18.93;;;;;;;;;;5099412;28;20438;-77
2022/09/09 10:18:48;;;;;;;20.30;19.00;;;;;;;;;;5100973;28;20500;-77
2022/09/09 10:21:22;;;;;;;21.80;20.40;;;;;;;;;;5100505;28;20409;-78
2022/09/09 10:23:58;;;;;;;21.57;20.17;;;;;;;;;;5101084;28;20440;-77
2022/09/09 10:26:33;;;;;;;21.63;20.33;;;;;;;;;;5105427;28;20432;-77
2022/09/09 10:29:08;;;;;;;20.27;19.10;;;;;;;;;;5106192;28;20941;-77
2022/09/09 10:31:39;;;;;;;21.43;19.97;;;;;;;;;;5105605;28;20431;-77
2022/09/09 10:34:16;;;;;;;20.80;19.40;;;;;;;;;;5108969;28;20439;-77
2022/09/09 10:36:48;;;;;;;23.77;21.40;;;;;;;;;;5095188;28;20544;-78
2022/09/09 10:39:20;;;;;;;21.43;20.00;;;;;;;;;;5094600;28;20883;-78
2022/09/09 10:41:52;;;;;;;21.67;20.33;;;;;;;;;;5095791;28;20443;-78
2022/09/09 10:44:28;;;;;;;21.27;20.07;;;;;;;;;;5095555;28;20407;-78
2022/09/09 10:47:15;;;;;;;20.20;19.07;;;;;;;;;;5095289;28;20435;-77
2022/09/09 10:49:52;;;;;;;20.80;19.50;;;;;;;;;;5095276;28;20475;-78
2022/09/09 10:52:22;;;;;;;21.27;20.07;;;;;;;;;;5094218;28;20487;-77
2022/09/09 10:54:56;;;;;;;21.30;19.80;;;;;;;;;;5097745;28;20464;-77
2022/09/09 10:57:28;;;;;;;22.37;20.67;;;;;;;;;;5096882;28;20966;-78
2022/09/09 10:59:58;;;;;;;22.77;21.10;;;;;;;;;;5099505;28;20448;-78
2022/09/09 11:02:28;;;;;;;21.63;20.33;;;;;;;;;;5098864;28;20474;-78
2022/09/09 11:05:00;;;;;;;21.50;20.10;;;;;;;;;;5097154;28;20443;-78
2022/09/09 11:07:31;;;;;;;21.50;20.20;;;;;;;;;;5096506;28;20783;-78
2022/09/09 11:10:02;;;;;;;22.53;21.10;;;;;;;;;;5096042;28;20473;-78
2022/09/09 11:12:31;;;;;;;22.03;20.83;;;;;;;;;;5096655;28;20856;-78
2022/09/09 11:15:01;;;;;;;21.77;20.50;;;;;;;;;;5096380;28;20454;-78
2022/09/09 11:17:33;;;;;;;22.20;20.80;;;;;;;;;;5096749;28;20976;-79
2022/09/09 11:20:02;;;;;;;23.70;22.30;;;;;;;;;;5098517;28;20808;-78
2022/09/09 11:22:30;;;;;;;21.67;20.17;;;;;;;;;;5102988;28;20457;-78
2022/09/09 11:25:00;;;;;;;21.57;20.07;;;;;;;;;;5103666;28;20432;-78
2022/09/09 11:27:31;;;;;;;22.03;20.50;;;;;;;;;;5104137;28;20500;-77
2022/09/09 11:30:07;;;;;;;22.70;21.03;;;;;;;;;;5104156;28;20451;-78
2022/09/09 11:32:55;;;;;;;22.17;20.37;;;;;;;;;;5098454;28;20443;-78
2022/09/09 11:35:35;;;;;;;22.20;20.57;;;;;;;;;;5081431;28;20422;-77
2022/09/09 11:38:20;;;;;;;22.17;20.43;;;;;;;;;;5098629;28;20446;-78
2022/09/09 11:40:49;;;;;;;22.60;21.20;;;;;;;;;;5101192;28;20427;-77
2022/09/09 11:43:17;;;;;;;22.07;20.70;;;;;;;;;;5107984;28;20447;-78
2022/09/09 11:45:52;;;;;;;21.77;20.57;;;;;;;;;;5106886;28;20428;-78
2022/09/09 11:48:28;;;;;;;52.17;48.60;;;;;;;;;;5106897;28;20471;-78
2022/09/09 11:51:02;;;;;;;23.70;22.10;;;;;;;;;;5107072;28;20437;-78
2022/09/09 11:53:30;;;;;;;21.87;20.50;;;;;;;;;;5106679;28;20795;-79
2022/09/09 11:56:21;;;;;;;22.00;20.60;;;;;;;;;;5106060;28;20493;-76
2022/09/09 11:58:56;;;;;;;21.20;19.90;;;;;;;;;;5095319;28;20463;-76
2022/09/09 12:01:31;;;;;;;21.00;19.50;;;;;;;;;;5108847;28;20442;-75
2022/09/09 12:04:08;;;;;;;20.30;18.90;;;;;;;;;;5104648;28;20474;-75
2022/09/09 12:06:45;;;;;;;20.10;18.90;;;;;;;;;;5105078;28;20406;-75
2022/09/09 12:09:20;;;;;;;19.80;18.70;;;;;;;;;;5102330;28;20480;-75
2022/09/09 12:11:48;;;;;;;21.20;19.87;;;;;;;;;;5098157;28;20428;-75
2022/09/09 12:14:21;;;;;;;21.73;20.43;;;;;;;;;;5100660;28;20453;-75
2022/09/09 12:16:48;;;;;;;20.60;19.20;;;;;;;;;;5100932;28;20475;-75
2022/09/09 12:19:17;;;;;;;23.00;21.50;;;;;;;;;;5102427;28;20995;-75
2022/09/09 12:21:51;;;;;;;22.20;20.90;;;;;;;;;;5098937;28;20461;-76
2022/09/09 12:24:21;;;;;;;22.07;20.87;;;;;;;;;;5096521;28;20439;-75
2022/09/09 12:26:53;;;;;;;21.83;20.67;;;;;;;;;;5097160;28;20767;-76
2022/09/09 12:29:25;;;;;;;21.47;20.37;;;;;;;;;;5097881;28;20446;-75
2022/09/09 12:31:56;;;;;;;22.47;20.90;;;;;;;;;;5096517;28;20406;-76
2022/09/09 12:34:31;;;;;;;22.63;21.43;;;;;;;;;;5097170;28;20513;-76
2022/09/09 12:37:04;;;;;;;21.93;20.80;;;;;;;;;;5097629;28;20501;-76
2022/09/09 12:39:34;;;;;;;23.60;22.20;;;;;;;;;;5100561;28;20453;-76
2022/09/09 12:42:03;;;;;;;23.43;21.53;;;;;;;;;;5098416;28;20432;-75
2022/09/09 12:44:32;;;;;;;22.27;20.77;;;;;;;;;;5098507;28;20451;-76
2022/09/09 12:47:02;;;;;;;24.10;22.40;;;;;;;;;;5096868;28;20422;-76
2022/09/09 12:49:33;;;;;;;22.93;21.53;;;;;;;;;;5096672;28;20475;-75
2022/09/09 12:52:05;;;;;;;23.03;21.33;;;;;;;;;;5097757;28;20406;-75
2022/09/09 12:54:32;;;;;;;23.20;21.80;;;;;;;;;;5097466;28;20455;-76
2022/09/09 12:57:00;;;;;;;22.07;20.77;;;;;;;;;;5096964;28;20487;-75
2022/09/09 12:59:36;;;;;;;22.83;21.53;;;;;;;;;;5098083;28;20512;-75
2022/09/09 13:02:03;;;;;;;21.83;20.33;;;;;;;;;;5096927;28;20405;-75
2022/09/09 13:04:30;;;;;;;23.97;22.47;;;;;;;;;;5096570;28;20470;-76
2022/09/09 13:07:09;;;;;;;23.50;21.87;;;;;;;;;;5097900;28;20435;-78
2022/09/09 13:09:37;;;;;;;23.77;22.20;;;;;;;;;;5096273;28;20525;-76
2022/09/09 13:12:07;;;;;;;22.10;20.77;;;;;;;;;;5095896;28;20442;-76
2022/09/09 13:14:37;;;;;;;23.07;21.57;;;;;;;;;;5097581;28;20455;-76
2022/09/09 13:17:05;;;;;;;22.67;21.37;;;;;;;;;;5096478;28;20976;-76
2022/09/09 13:19:34;;;;;;;22.60;21.00;;;;;;;;;;5096382;28;20482;-76
2022/09/09 13:22:02;;;;;;;22.03;20.50;;;;;;;;;;5097213;28;20431;-75
2022/09/09 13:24:32;;;;;;;21.40;20.20;;;;;;;;;;5095724;28;20535;-76
2022/09/09 13:27:01;;;;;;;22.30;21.00;;;;;;;;;;5095318;28;20422;-76
2022/09/09 13:29:29;;;;;;;22.30;21.10;;;;;;;;;;5095474;28;20467;-75
2022/09/09 13:32:04;;;;;;;23.00;21.80;;;;;;;;;;5094501;28;20910;-76
2022/09/09 13:34:35;;;;;;;23.93;22.63;;;;;;;;;;5094816;28;20421;-75
2022/09/09 13:37:03;;;;;;;22.87;21.67;;;;;;;;;;5095004;28;20468;-76
2022/09/09 13:39:32;;;;;;;23.20;21.70;;;;;;;;;;5094931;28;20520;-76
2022/09/09 13:41:59;;;;;;;22.43;21.13;;;;;;;;;;5096834;28;20441;-76
2022/09/09 13:44:27;;;;;;;22.67;21.33;;;;;;;;;;5094574;28;20446;-75
2022/09/09 13:47:02;;;;;;;22.60;21.20;;;;;;;;;;5094997;28;20447;-76
2022/09/09 13:49:33;;;;;;;22.80;21.40;;;;;;;;;;5094873;28;20502;-76
2022/09/09 13:52:08;;;;;;;22.67;21.37;;;;;;;;;;5095825;28;20427;-76
2022/09/09 13:54:37;;;;;;;22.93;21.63;;;;;;;;;;5096532;28;20461;-76
2022/09/09 13:57:04;;;;;;;22.60;21.30;;;;;;;;;;5096836;28;20988;-76
2022/09/09 13:59:32;;;;;;;22.27;20.97;;;;;;;;;;5096750;28;20482;-76
2022/09/09 14:02:01;;;;;;;23.30;21.90;;;;;;;;;;5097918;28;20504;-76
2022/09/09 14:04:28;;;;;;;22.80;21.40;;;;;;;;;;5095752;28;20452;-76
2022/09/09 14:06:57;;;;;;;23.77;22.30;;;;;;;;;;5094114;28;20507;-77
2022/09/09 14:09:24;;;;;;;21.87;20.67;;;;;;;;;;5094517;28;20463;-77
2022/09/09 14:11:54;;;;;;;22.97;21.67;;;;;;;;;;5093908;28;20456;-77
2022/09/09 14:14:22;;;;;;;23.30;21.90;;;;;;;;;;5094463;28;20437;-76
2022/09/09 14:16:49;;;;;;;23.70;22.07;;;;;;;;;;5094768;28;20429;-76
2022/09/09 14:19:17;;;;;;;22.90;21.60;;;;;;;;;;5094475;28;20484;-77
2022/09/09 14:21:45;;;;;;;23.03;21.53;;;;;;;;;;5094262;28;20443;-77
2022/09/09 14:24:12;;;;;;;22.53;21.33;;;;;;;;;;5094078;28;20951;-77
2022/09/09 14:26:40;;;;;;;24.27;22.67;;;;;;;;;;5094896;28;20456;-77
2022/09/09 14:29:09;;;;;;;24.60;23.30;;;;;;;;;;5095040;28;20530;-77
2022/09/09 14:31:37;;;;;;;24.03;22.73;;;;;;;;;;5093742;28;20447;-77